sensor_id;sensor_type;location;lat;lon;timestamp;temperature;humidity
38866;DHT22;62686;48.984;8.394;2024-03-23T00:53:00;10.20;99.90
38866;DHT22;62686;48.984;8.394;2024-03-23T00:55:26;10.10;99.90
38866;DHT22;62686;48.984;8.394;2024-03-23T00:57:55;10.10;99.90
38866;DHT22;62686;48.984;8.394;2024-03-23T01:00:22;10.10;99.90
38866;DHT22;62686;48.984;8.394;2024-03-23T01:02:50;10.10;99.90
38866;DHT22;62686;48.984;8.394;2024-03-23T01:05:19;10.10;99.90
38866;DHT22;62686;48.984;8.394;2024-03-23T01:07:46;10.10;99.90
38866;DHT22;62686;48.984;8.394;2024-03-23T01:10:15;10.10;99.90
38866;DHT22;62686;48.984;8.394;2024-03-23T01:12:42;10.00;99.90
38866;DHT22;62686;48.984;8.394;2024-03-23T01:15:09;9.90;99.90
38866;DHT22;62686;48.984;8.394;2024-03-23T01:17:37;9.90;99.90
38866;DHT22;62686;48.984;8.394;2024-03-23T01:20:04;9.80;99.90
38866;DHT22;62686;48.984;8.394;2024-03-23T01:22:32;9.80;99.90
38866;DHT22;62686;48.984;8.394;2024-03-23T01:24:59;9.70;99.90
38866;DHT22;62686;48.984;8.394;2024-03-23T01:27:28;9.60;99.90
38866;DHT22;62686;48.984;8.394;2024-03-23T01:29:54;9.50;99.90
38866;DHT22;62686;48.984;8.394;2024-03-23T01:32:23;9.50;99.90
38866;DHT22;62686;48.984;8.394;2024-03-23T01:34:49;9.50;99.90
38866;DHT22;62686;48.984;8.394;2024-03-23T01:37:17;9.60;99.90
38866;DHT22;62686;48.984;8.394;2024-03-23T01:39:43;9.70;99.90
38866;DHT22;62686;48.984;8.394;2024-03-23T01:42:11;9.80;99.90
38866;DHT22;62686;48.984;8.394;2024-03-23T01:44:40;9.90;99.90
38866;DHT22;62686;48.984;8.394;2024-03-23T01:47:06;10.10;99.90
38866;DHT22;62686;48.984;8.394;2024-03-23T01:49:34;10.20;99.90
38866;DHT22;62686;48.984;8.394;2024-03-23T01:52:02;10.40;99.90
38866;DHT22;62686;48.984;8.394;2024-03-23T02:02:30;11.00;99.90
38866;DHT22;62686;48.984;8.394;2024-03-23T02:05:03;11.10;99.90
38866;DHT22;62686;48.984;8.394;2024-03-23T02:07:32;11.30;99.90
38866;DHT22;62686;48.984;8.394;2024-03-23T02:10:02;11.40;99.90
38866;DHT22;62686;48.984;8.394;2024-03-23T02:12:29;11.40;99.90
38866;DHT22;62686;48.984;8.394;2024-03-23T02:14:58;11.30;99.90
38866;DHT22;62686;48.984;8.394;2024-03-23T02:17:24;11.30;99.90
38866;DHT22;62686;48.984;8.394;2024-03-23T02:19:53;11.40;99.90
38866;DHT22;62686;48.984;8.394;2024-03-23T02:22:19;11.60;99.90
38866;DHT22;62686;48.984;8.394;2024-03-23T02:24:48;11.70;99.90
38866;DHT22;62686;48.984;8.394;2024-03-23T02:27:15;11.90;99.90
38866;DHT22;62686;48.984;8.394;2024-03-23T02:29:42;12.00;99.90
38866;DHT22;62686;48.984;8.394;2024-03-23T02:32:10;12.10;99.90
38866;DHT22;62686;48.984;8.394;2024-03-23T02:34:36;12.10;99.90
38866;DHT22;62686;48.984;8.394;2024-03-23T02:37:10;12.10;99.90
38866;DHT22;62686;48.984;8.394;2024-03-23T02:39:37;12.10;99.90
38866;DHT22;62686;48.984;8.394;2024-03-23T02:42:06;12.10;99.90
38866;DHT22;62686;48.984;8.394;2024-03-23T02:44:32;12.10;99.90
38866;DHT22;62686;48.984;8.394;2024-03-23T02:47:00;12.10;99.90
38866;DHT22;62686;48.984;8.394;2024-03-23T02:49:26;12.10;99.90
38866;DHT22;62686;48.984;8.394;2024-03-23T02:51:54;12.10;99.90
38866;DHT22;62686;48.984;8.394;2024-03-23T02:54:20;12.20;99.90
38866;DHT22;62686;48.984;8.394;2024-03-23T02:56:48;12.20;99.90
38866;DHT22;62686;48.984;8.394;2024-03-23T02:59:16;12.10;99.90
38866;DHT22;62686;48.984;8.394;2024-03-23T03:01:43;12.10;99.90
38866;DHT22;62686;48.984;8.394;2024-03-23T03:04:09;12.20;99.90
38866;DHT22;62686;48.984;8.394;2024-03-23T03:06:37;12.30;99.90
38866;DHT22;62686;48.984;8.394;2024-03-23T03:09:03;12.10;99.90
38866;DHT22;62686;48.984;8.394;2024-03-23T03:11:31;12.10;99.90
38866;DHT22;62686;48.984;8.394;2024-03-23T03:13:57;12.10;99.90
38866;DHT22;62686;48.984;8.394;2024-03-23T03:16:27;12.10;99.90
38866;DHT22;62686;48.984;8.394;2024-03-23T03:18:53;12.10;99.90
38866;DHT22;62686;48.984;8.394;2024-03-23T03:21:21;12.20;99.90
38866;DHT22;62686;48.984;8.394;2024-03-23T03:23:48;12.30;99.90
38866;DHT22;62686;48.984;8.394;2024-03-23T03:26:16;12.30;99.90
38866;DHT22;62686;48.984;8.394;2024-03-23T03:28:43;12.40;99.90
38866;DHT22;62686;48.984;8.394;2024-03-23T03:31:14;12.40;99.90
38866;DHT22;62686;48.984;8.394;2024-03-23T03:33:42;12.30;99.90
38866;DHT22;62686;48.984;8.394;2024-03-23T03:36:10;12.40;99.90
38866;DHT22;62686;48.984;8.394;2024-03-23T03:38:36;12.60;99.90
38866;DHT22;62686;48.984;8.394;2024-03-23T03:41:04;12.70;99.90
38866;DHT22;62686;48.984;8.394;2024-03-23T03:43:32;12.80;99.90
38866;DHT22;62686;48.984;8.394;2024-03-23T03:46:02;12.90;99.90
38866;DHT22;62686;48.984;8.394;2024-03-23T03:48:29;12.90;99.90
38866;DHT22;62686;48.984;8.394;2024-03-23T03:50:57;12.90;99.90
38866;DHT22;62686;48.984;8.394;2024-03-23T03:53:24;12.90;99.90
38866;DHT22;62686;48.984;8.394;2024-03-23T03:55:52;13.00;99.90
38866;DHT22;62686;48.984;8.394;2024-03-23T03:58:18;13.00;99.90
38866;DHT22;62686;48.984;8.394;2024-03-23T04:00:46;12.90;99.90
38866;DHT22;62686;48.984;8.394;2024-03-23T04:03:12;12.90;99.90
38866;DHT22;62686;48.984;8.394;2024-03-23T04:05:40;12.80;99.90
38866;DHT22;62686;48.984;8.394;2024-03-23T04:08:08;12.80;99.90
38866;DHT22;62686;48.984;8.394;2024-03-23T04:10:35;12.70;99.90
38866;DHT22;62686;48.984;8.394;2024-03-23T04:13:01;12.70;99.90
38866;DHT22;62686;48.984;8.394;2024-03-23T04:15:30;12.60;99.90
38866;DHT22;62686;48.984;8.394;2024-03-23T04:17:57;12.60;99.90
38866;DHT22;62686;48.984;8.394;2024-03-23T04:20:24;12.60;99.90
38866;DHT22;62686;48.984;8.394;2024-03-23T05:22:50;11.20;99.90
38866;DHT22;62686;48.984;8.394;2024-03-23T05:34:24;11.10;99.90
38866;DHT22;62686;48.984;8.394;2024-03-23T05:36:52;11.00;99.90
38866;DHT22;62686;48.984;8.394;2024-03-23T05:39:20;10.90;99.90
38866;DHT22;62686;48.984;8.394;2024-03-23T05:41:48;10.90;99.90
38866;DHT22;62686;48.984;8.394;2024-03-23T05:44:14;10.80;99.90
38866;DHT22;62686;48.984;8.394;2024-03-23T05:46:42;10.80;99.90
38866;DHT22;62686;48.984;8.394;2024-03-23T05:49:15;10.70;99.90
38866;DHT22;62686;48.984;8.394;2024-03-23T05:51:43;10.60;99.90
38866;DHT22;62686;48.984;8.394;2024-03-23T05:54:09;10.60;99.90
38866;DHT22;62686;48.984;8.394;2024-03-23T05:56:42;10.50;99.90
38866;DHT22;62686;48.984;8.394;2024-03-23T05:59:09;10.50;99.90
38866;DHT22;62686;48.984;8.394;2024-03-23T06:01:36;10.40;99.90
38866;DHT22;62686;48.984;8.394;2024-03-23T06:04:04;10.40;99.90
38866;DHT22;62686;48.984;8.394;2024-03-23T06:06:32;10.30;99.90
38866;DHT22;62686;48.984;8.394;2024-03-23T06:08:58;10.30;99.90
38866;DHT22;62686;48.984;8.394;2024-03-23T06:11:26;10.30;99.90
38866;DHT22;62686;48.984;8.394;2024-03-23T06:13:54;10.30;99.90
38866;DHT22;62686;48.984;8.394;2024-03-23T06:16:22;10.30;99.90
38866;DHT22;62686;48.984;8.394;2024-03-23T06:18:50;10.20;99.90
38866;DHT22;62686;48.984;8.394;2024-03-23T06:21:17;10.30;99.90
38866;DHT22;62686;48.984;8.394;2024-03-23T06:23:44;10.20;99.90
38866;DHT22;62686;48.984;8.394;2024-03-23T06:26:17;10.20;99.90
38866;DHT22;62686;48.984;8.394;2024-03-23T06:28:43;10.20;99.90
38866;DHT22;62686;48.984;8.394;2024-03-23T06:31:12;10.20;99.90
38866;DHT22;62686;48.984;8.394;2024-03-23T06:33:39;10.20;99.90
38866;DHT22;62686;48.984;8.394;2024-03-23T06:36:09;10.20;99.90
38866;DHT22;62686;48.984;8.394;2024-03-23T06:38:36;10.20;99.90
38866;DHT22;62686;48.984;8.394;2024-03-23T06:41:05;10.20;99.90
38866;DHT22;62686;48.984;8.394;2024-03-23T06:46:31;10.10;99.90
38866;DHT22;62686;48.984;8.394;2024-03-23T07:07:24;9.80;99.90
38866;DHT22;62686;48.984;8.394;2024-03-23T07:20:33;9.70;99.90
38866;DHT22;62686;48.984;8.394;2024-03-23T09:02:50;14.90;99.90
38866;DHT22;62686;48.984;8.394;2024-03-23T09:05:18;13.80;99.90
38866;DHT22;62686;48.984;8.394;2024-03-23T09:07:45;12.70;99.90
38866;DHT22;62686;48.984;8.394;2024-03-23T09:10:13;12.60;99.90
38866;DHT22;62686;48.984;8.394;2024-03-23T09:12:39;12.30;99.90
38866;DHT22;62686;48.984;8.394;2024-03-23T09:15:07;11.90;99.90
38866;DHT22;62686;48.984;8.394;2024-03-23T09:17:34;11.80;99.90
38866;DHT22;62686;48.984;8.394;2024-03-23T09:20:03;11.30;99.90
38866;DHT22;62686;48.984;8.394;2024-03-23T09:22:30;11.10;99.90
38866;DHT22;62686;48.984;8.394;2024-03-23T09:24:58;11.00;99.90
38866;DHT22;62686;48.984;8.394;2024-03-23T09:27:24;10.80;99.90
38866;DHT22;62686;48.984;8.394;2024-03-23T09:29:52;10.70;99.90
38866;DHT22;62686;48.984;8.394;2024-03-23T09:32:18;10.70;99.90
38866;DHT22;62686;48.984;8.394;2024-03-23T09:34:45;10.60;99.90
38866;DHT22;62686;48.984;8.394;2024-03-23T09:37:13;10.50;99.90
38866;DHT22;62686;48.984;8.394;2024-03-23T09:39:41;10.50;99.90
38866;DHT22;62686;48.984;8.394;2024-03-23T09:42:07;10.30;99.90
38866;DHT22;62686;48.984;8.394;2024-03-23T09:44:35;10.10;99.90
38866;DHT22;62686;48.984;8.394;2024-03-23T09:47:02;10.00;99.90
38866;DHT22;62686;48.984;8.394;2024-03-23T09:49:30;9.90;99.90
38866;DHT22;62686;48.984;8.394;2024-03-23T09:51:58;9.90;99.90
38866;DHT22;62686;48.984;8.394;2024-03-23T09:54:27;9.90;99.90
38866;DHT22;62686;48.984;8.394;2024-03-23T09:56:53;9.80;99.90
38866;DHT22;62686;48.984;8.394;2024-03-23T09:59:21;9.30;99.90
38866;DHT22;62686;48.984;8.394;2024-03-23T10:01:48;8.60;99.90
38866;DHT22;62686;48.984;8.394;2024-03-23T10:04:37;8.10;99.90
38866;DHT22;62686;48.984;8.394;2024-03-23T10:07:14;7.80;99.90
38866;DHT22;62686;48.984;8.394;2024-03-23T10:09:44;7.70;99.90
38866;DHT22;62686;48.984;8.394;2024-03-23T12:50:27;13.80;99.90
38866;DHT22;62686;48.984;8.394;2024-03-23T13:20:26;9.00;99.90
38866;DHT22;62686;48.984;8.394;2024-03-23T13:28:45;9.70;99.90
38866;DHT22;62686;48.984;8.394;2024-03-23T13:31:13;11.60;99.90
38866;DHT22;62686;48.984;8.394;2024-03-23T13:36:18;12.70;99.90
38866;DHT22;62686;48.984;8.394;2024-03-23T13:38:45;12.00;99.90
38866;DHT22;62686;48.984;8.394;2024-03-23T13:41:12;11.50;99.90
38866;DHT22;62686;48.984;8.394;2024-03-23T13:43:39;11.00;99.90
38866;DHT22;62686;48.984;8.394;2024-03-23T13:46:07;10.40;99.90
38866;DHT22;62686;48.984;8.394;2024-03-23T13:54:57;13.30;99.90
38866;DHT22;62686;48.984;8.394;2024-03-23T13:57:26;13.80;99.90
38866;DHT22;62686;48.984;8.394;2024-03-23T13:59:53;14.00;99.90
38866;DHT22;62686;48.984;8.394;2024-03-23T14:02:37;14.90;99.90
38866;DHT22;62686;48.984;8.394;2024-03-23T14:05:05;14.40;99.90
38866;DHT22;62686;48.984;8.394;2024-03-23T14:07:32;14.00;99.90
38866;DHT22;62686;48.984;8.394;2024-03-23T14:15:25;13.70;99.90
38866;DHT22;62686;48.984;8.394;2024-03-23T14:17:53;13.40;99.90
38866;DHT22;62686;48.984;8.394;2024-03-23T14:20:20;12.20;99.90
38866;DHT22;62686;48.984;8.394;2024-03-23T14:22:48;10.40;99.90
38866;DHT22;62686;48.984;8.394;2024-03-23T14:25:15;9.50;99.90
38866;DHT22;62686;48.984;8.394;2024-03-23T14:27:44;9.40;99.90
38866;DHT22;62686;48.984;8.394;2024-03-23T14:30:12;9.30;99.90
38866;DHT22;62686;48.984;8.394;2024-03-23T14:32:43;9.30;99.90
38866;DHT22;62686;48.984;8.394;2024-03-23T14:38:11;9.70;99.90
38866;DHT22;62686;48.984;8.394;2024-03-23T14:54:47;11.70;99.90
38866;DHT22;62686;48.984;8.394;2024-03-23T14:57:14;10.90;99.90
38866;DHT22;62686;48.984;8.394;2024-03-23T14:59:41;10.50;99.90
38866;DHT22;62686;48.984;8.394;2024-03-23T15:02:09;10.10;99.90
38866;DHT22;62686;48.984;8.394;2024-03-23T15:04:35;10.00;99.90
38866;DHT22;62686;48.984;8.394;2024-03-23T15:07:03;10.00;99.90
38866;DHT22;62686;48.984;8.394;2024-03-23T15:09:30;9.80;99.90
38866;DHT22;62686;48.984;8.394;2024-03-23T15:22:42;9.70;99.90
38866;DHT22;62686;48.984;8.394;2024-03-23T15:25:09;9.70;99.90
38866;DHT22;62686;48.984;8.394;2024-03-23T15:27:36;9.60;99.90
38866;DHT22;62686;48.984;8.394;2024-03-23T15:30:05;9.50;99.90
38866;DHT22;62686;48.984;8.394;2024-03-23T15:32:33;9.40;99.90
38866;DHT22;62686;48.984;8.394;2024-03-23T15:35:06;9.50;99.90
38866;DHT22;62686;48.984;8.394;2024-03-23T15:37:34;9.30;99.90
38866;DHT22;62686;48.984;8.394;2024-03-23T15:40:32;9.40;99.90
38866;DHT22;62686;48.984;8.394;2024-03-23T15:43:00;9.40;99.90
38866;DHT22;62686;48.984;8.394;2024-03-23T15:45:30;9.60;99.90
38866;DHT22;62686;48.984;8.394;2024-03-23T15:53:28;9.20;99.90
38866;DHT22;62686;48.984;8.394;2024-03-23T15:58:47;9.10;99.90
38866;DHT22;62686;48.984;8.394;2024-03-23T16:01:17;9.10;99.90
38866;DHT22;62686;48.984;8.394;2024-03-23T16:23:07;9.20;99.90
38866;DHT22;62686;48.984;8.394;2024-03-23T16:30:56;8.20;99.90
38866;DHT22;62686;48.984;8.394;2024-03-23T18:15:08;5.20;99.90
38866;DHT22;62686;48.984;8.394;2024-03-23T18:17:36;5.20;99.90
38866;DHT22;62686;48.984;8.394;2024-03-23T18:22:45;5.00;99.90
38866;DHT22;62686;48.984;8.394;2024-03-23T18:25:16;5.00;99.90
38866;DHT22;62686;48.984;8.394;2024-03-23T18:27:42;5.00;99.90
38866;DHT22;62686;48.984;8.394;2024-03-23T18:30:14;4.90;99.90
38866;DHT22;62686;48.984;8.394;2024-03-23T18:32:41;5.00;99.90
38866;DHT22;62686;48.984;8.394;2024-03-23T18:35:09;4.90;99.90
38866;DHT22;62686;48.984;8.394;2024-03-23T18:37:36;4.90;99.90
38866;DHT22;62686;48.984;8.394;2024-03-23T18:40:05;5.00;99.90
38866;DHT22;62686;48.984;8.394;2024-03-23T18:42:33;4.90;99.90
38866;DHT22;62686;48.984;8.394;2024-03-23T18:50:21;4.70;99.90
38866;DHT22;62686;48.984;8.394;2024-03-23T20:22:56;4.40;99.90
38866;DHT22;62686;48.984;8.394;2024-03-23T20:42:48;4.70;99.90
38866;DHT22;62686;48.984;8.394;2024-03-23T20:45:15;4.70;99.90
38866;DHT22;62686;48.984;8.394;2024-03-23T20:47:42;4.90;99.90
38866;DHT22;62686;48.984;8.394;2024-03-23T20:50:09;4.90;99.90
38866;DHT22;62686;48.984;8.394;2024-03-23T20:52:37;5.00;99.90
38866;DHT22;62686;48.984;8.394;2024-03-23T20:55:04;5.00;99.90
38866;DHT22;62686;48.984;8.394;2024-03-23T20:57:31;5.10;99.90
38866;DHT22;62686;48.984;8.394;2024-03-23T21:00:00;5.10;99.90
38866;DHT22;62686;48.984;8.394;2024-03-23T21:02:27;5.20;99.90
38866;DHT22;62686;48.984;8.394;2024-03-23T21:04:54;5.10;99.90
38866;DHT22;62686;48.984;8.394;2024-03-23T21:07:22;5.10;99.90
38866;DHT22;62686;48.984;8.394;2024-03-23T21:09:49;5.00;99.90
38866;DHT22;62686;48.984;8.394;2024-03-23T21:12:16;5.00;99.90
38866;DHT22;62686;48.984;8.394;2024-03-23T21:14:44;5.00;99.90
38866;DHT22;62686;48.984;8.394;2024-03-23T21:17:11;5.10;99.90
38866;DHT22;62686;48.984;8.394;2024-03-23T21:19:41;5.10;99.90
38866;DHT22;62686;48.984;8.394;2024-03-23T21:22:09;5.10;99.90
38866;DHT22;62686;48.984;8.394;2024-03-23T21:24:37;5.10;99.90
38866;DHT22;62686;48.984;8.394;2024-03-23T21:27:04;5.10;99.90
38866;DHT22;62686;48.984;8.394;2024-03-23T21:29:31;5.20;99.90
38866;DHT22;62686;48.984;8.394;2024-03-23T21:31:59;5.40;99.90
38866;DHT22;62686;48.984;8.394;2024-03-23T21:34:27;5.40;99.90
38866;DHT22;62686;48.984;8.394;2024-03-23T21:36:54;5.50;99.90
38866;DHT22;62686;48.984;8.394;2024-03-23T21:39:21;5.50;99.90
38866;DHT22;62686;48.984;8.394;2024-03-23T21:41:51;5.60;99.90
38866;DHT22;62686;48.984;8.394;2024-03-23T21:44:19;5.70;99.90
38866;DHT22;62686;48.984;8.394;2024-03-23T21:46:51;5.70;99.90
38866;DHT22;62686;48.984;8.394;2024-03-23T21:49:18;5.80;99.90
38866;DHT22;62686;48.984;8.394;2024-03-23T21:51:46;5.90;99.90
38866;DHT22;62686;48.984;8.394;2024-03-23T21:54:13;5.90;99.90
38866;DHT22;62686;48.984;8.394;2024-03-23T21:56:40;5.90;99.90
38866;DHT22;62686;48.984;8.394;2024-03-23T21:59:07;5.80;99.90
38866;DHT22;62686;48.984;8.394;2024-03-23T22:01:35;5.70;99.90
38866;DHT22;62686;48.984;8.394;2024-03-23T22:04:02;5.70;99.90
38866;DHT22;62686;48.984;8.394;2024-03-23T22:06:30;5.70;99.90
38866;DHT22;62686;48.984;8.394;2024-03-23T22:08:57;5.70;99.90
38866;DHT22;62686;48.984;8.394;2024-03-23T22:11:25;5.80;99.90
38866;DHT22;62686;48.984;8.394;2024-03-23T22:13:51;5.80;99.90
38866;DHT22;62686;48.984;8.394;2024-03-23T22:16:19;5.90;99.90
38866;DHT22;62686;48.984;8.394;2024-03-23T22:18:46;6.00;99.90
38866;DHT22;62686;48.984;8.394;2024-03-23T22:21:13;6.00;99.90
38866;DHT22;62686;48.984;8.394;2024-03-23T22:23:39;6.00;99.90
38866;DHT22;62686;48.984;8.394;2024-03-23T22:26:08;6.00;99.90
38866;DHT22;62686;48.984;8.394;2024-03-23T22:28:35;5.90;99.90
38866;DHT22;62686;48.984;8.394;2024-03-23T22:31:03;5.90;99.90
38866;DHT22;62686;48.984;8.394;2024-03-23T22:33:30;5.90;99.90
38866;DHT22;62686;48.984;8.394;2024-03-23T22:35:59;5.90;99.90
38866;DHT22;62686;48.984;8.394;2024-03-23T22:38:26;5.90;99.90
38866;DHT22;62686;48.984;8.394;2024-03-23T22:40:54;6.00;99.90
38866;DHT22;62686;48.984;8.394;2024-03-23T22:43:22;6.00;99.90
38866;DHT22;62686;48.984;8.394;2024-03-23T22:45:55;6.00;99.90
38866;DHT22;62686;48.984;8.394;2024-03-23T22:48:22;6.00;99.90
38866;DHT22;62686;48.984;8.394;2024-03-23T22:50:51;6.00;99.90
38866;DHT22;62686;48.984;8.394;2024-03-23T22:53:19;6.00;99.90
38866;DHT22;62686;48.984;8.394;2024-03-23T22:55:47;6.00;99.90
38866;DHT22;62686;48.984;8.394;2024-03-23T22:58:17;5.90;99.90
38866;DHT22;62686;48.984;8.394;2024-03-23T23:00:54;5.70;99.90
38866;DHT22;62686;48.984;8.394;2024-03-23T23:03:21;5.60;99.90
38866;DHT22;62686;48.984;8.394;2024-03-23T23:05:58;5.50;99.90
38866;DHT22;62686;48.984;8.394;2024-03-23T23:08:27;5.50;99.90
38866;DHT22;62686;48.984;8.394;2024-03-23T23:10:55;5.40;99.90
38866;DHT22;62686;48.984;8.394;2024-03-23T23:13:24;5.40;99.90
38866;DHT22;62686;48.984;8.394;2024-03-23T23:15:55;5.40;99.90
38866;DHT22;62686;48.984;8.394;2024-03-23T23:18:25;5.30;99.90
38866;DHT22;62686;48.984;8.394;2024-03-23T23:20:56;5.20;99.90
38866;DHT22;62686;48.984;8.394;2024-03-23T23:23:24;5.10;99.90
38866;DHT22;62686;48.984;8.394;2024-03-23T23:25:55;5.10;99.90
38866;DHT22;62686;48.984;8.394;2024-03-23T23:28:24;5.00;99.90
38866;DHT22;62686;48.984;8.394;2024-03-23T23:30:56;4.90;99.90
38866;DHT22;62686;48.984;8.394;2024-03-23T23:33:23;4.80;99.90
38866;DHT22;62686;48.984;8.394;2024-03-23T23:35:54;4.80;99.90
38866;DHT22;62686;48.984;8.394;2024-03-23T23:38:20;4.70;99.90
38866;DHT22;62686;48.984;8.394;2024-03-23T23:40:49;4.70;99.90
38866;DHT22;62686;48.984;8.394;2024-03-23T23:43:16;4.70;99.90
38866;DHT22;62686;48.984;8.394;2024-03-23T23:45:48;4.70;99.90
38866;DHT22;62686;48.984;8.394;2024-03-23T23:48:15;4.70;99.90
38866;DHT22;62686;48.984;8.394;2024-03-23T23:50:42;4.70;99.90
38866;DHT22;62686;48.984;8.394;2024-03-23T23:53:09;4.70;99.90
38866;DHT22;62686;48.984;8.394;2024-03-23T23:55:39;4.70;99.90
38866;DHT22;62686;48.984;8.394;2024-03-23T23:58:05;4.70;99.90
